X  Schließen METAR Luftfahrt Wetterdaten     LOWL Linz-Hörsching Airport / Vogler Air Base
Temperatur
36°F Temperatur
34°F Taupunkt
93% Feuchtigkeit



Wind
18 MPS
29 KM/S
8 M/S
16 KTS



280°
W
Aktuelle Wetterlage

Leicht  Regen Leicht Regen
Luftdruck 1020.92 (hPa) - 30.15 (inHg)
Sichtweite 6.2 (Meile) - 10 (Km)
Flughafen
Flughafen Code LOWL

Position : Linz-Hörsching Airport / Vogler Air Base
Entfernung: 32 (mi)

Metar:
LOWL 021150Z AUTO 28016KT 9999 -RA FEW017 BKN019 02/01 Q1021 TEMPO BKN014

Zeit: 02-02-2023 12:50 CET